createdAt,value
2023-05-03T00:00:52.996Z,1.40
2023-05-03T00:03:19.477Z,1.50
2023-05-03T00:05:46.126Z,1.10
2023-05-03T00:08:14.085Z,1.30
2023-05-03T00:10:40.517Z,1.40
2023-05-03T00:13:07.011Z,1.20
2023-05-03T00:15:33.566Z,1.40
2023-05-03T00:18:00.102Z,1.40
2023-05-03T00:20:26.648Z,1.50
2023-05-03T00:22:53.212Z,1.50
2023-05-03T00:25:20.996Z,1.40
2023-05-03T00:27:47.442Z,1.23
2023-05-03T00:30:14.156Z,1.20
2023-05-03T00:32:40.659Z,1.60
2023-05-03T00:35:07.887Z,1.25
2023-05-03T00:37:34.485Z,1.17
2023-05-03T00:40:01.131Z,1.40
2023-05-03T00:42:28.989Z,1.30
2023-05-03T00:44:55.984Z,1.67
2023-05-03T00:47:22.831Z,1.30
2023-05-03T00:49:49.466Z,1.65
2023-05-03T00:52:15.997Z,1.30
2023-05-03T00:54:42.546Z,1.55
2023-05-03T00:57:09.008Z,1.50
2023-05-03T00:59:37.678Z,1.27
2023-05-03T01:02:04.386Z,1.40
2023-05-03T01:04:31.004Z,1.50
2023-05-03T01:07:08.487Z,1.50
2023-05-03T01:09:43.021Z,1.35
2023-05-03T01:12:20.585Z,1.50
2023-05-03T01:14:54.433Z,1.35
2023-05-03T01:19:55.037Z,1.50
2023-05-03T01:22:32.006Z,1.42
2023-05-03T01:25:06.434Z,1.30
2023-05-03T01:27:32.969Z,1.30
2023-05-03T01:29:59.473Z,1.40
2023-05-03T01:32:36.419Z,1.55
2023-05-03T01:35:08.434Z,1.40
2023-05-03T01:37:35.538Z,1.52
2023-05-03T01:40:06.848Z,1.50
2023-05-03T01:42:36.158Z,1.40
2023-05-03T01:45:05.113Z,1.58
2023-05-03T01:47:31.756Z,1.55
2023-05-03T01:49:58.266Z,1.40
2023-05-03T01:52:24.759Z,1.40
2023-05-03T01:54:51.278Z,1.70
2023-05-03T01:57:19.075Z,1.40
2023-05-03T01:59:45.516Z,1.70
2023-05-03T02:02:11.955Z,1.52
2023-05-03T02:04:38.607Z,1.50
2023-05-03T02:07:05.141Z,1.70
2023-05-03T02:09:31.576Z,1.55
2023-05-03T02:11:58.151Z,1.80
2023-05-03T02:14:25.951Z,1.50
2023-05-03T02:16:52.504Z,1.70
2023-05-03T02:19:19.032Z,2.10
2023-05-03T02:21:45.526Z,2.22
2023-05-03T02:24:12.046Z,1.90
2023-05-03T02:26:38.587Z,2.20
2023-05-03T02:29:06.332Z,2.10
2023-05-03T02:31:34.091Z,2.33
2023-05-03T02:34:00.567Z,2.35
2023-05-03T02:36:27.279Z,2.30
2023-05-03T02:38:53.936Z,2.60
2023-05-03T02:41:20.414Z,2.25
2023-05-03T02:43:46.931Z,2.50
2023-05-03T02:46:13.482Z,2.70
2023-05-03T02:48:41.285Z,2.92
2023-05-03T02:51:07.740Z,3.20
2023-05-03T02:53:34.163Z,3.03
2023-05-03T02:56:00.703Z,3.45
2023-05-03T02:58:27.307Z,3.15
2023-05-03T03:00:53.872Z,3.28
2023-05-03T03:03:20.367Z,3.38
2023-05-03T03:05:49.243Z,3.60
2023-05-03T03:08:15.849Z,3.58
2023-05-03T03:10:42.345Z,3.70
2023-05-03T03:13:08.832Z,3.75
2023-05-03T03:15:35.302Z,3.55
2023-05-03T03:18:01.836Z,4.07
2023-05-03T03:20:28.305Z,3.65
2023-05-03T03:22:56.090Z,4.15
2023-05-03T03:25:22.937Z,3.63
2023-05-03T03:27:49.393Z,4.00
2023-05-03T03:30:15.960Z,4.07
2023-05-03T03:32:42.555Z,4.40
2023-05-03T03:35:09.933Z,4.00
2023-05-03T03:37:36.413Z,3.83
2023-05-03T03:40:05.243Z,4.00
2023-05-03T03:42:31.871Z,4.00
2023-05-03T03:44:58.329Z,4.20
2023-05-03T03:47:25.002Z,3.95
2023-05-03T03:49:51.529Z,3.67
2023-05-03T03:52:18.021Z,4.03
2023-05-03T03:54:44.476Z,4.10
2023-05-03T03:57:12.289Z,4.18
2023-05-03T03:59:38.742Z,4.63
2023-05-03T04:02:05.363Z,3.90
2023-05-03T04:04:32.058Z,4.07
2023-05-03T04:06:58.620Z,4.28
2023-05-03T04:09:25.060Z,3.72
2023-05-03T04:11:51.625Z,4.00
2023-05-03T04:14:19.379Z,3.90
2023-05-03T04:16:45.861Z,4.20
2023-05-03T04:19:13.890Z,3.85
2023-05-03T04:21:40.361Z,4.10
2023-05-03T04:24:07.575Z,4.15
2023-05-03T04:26:34.108Z,3.72
2023-05-03T04:29:00.575Z,4.28
2023-05-03T04:31:28.484Z,4.45
2023-05-03T04:33:55.120Z,4.25
2023-05-03T04:36:21.638Z,4.20
2023-05-03T04:38:48.119Z,4.45
2023-05-03T04:41:16.141Z,3.47
2023-05-03T04:43:42.901Z,4.05
2023-05-03T04:46:09.691Z,4.15
2023-05-03T04:48:37.430Z,4.10
2023-05-03T04:51:04.300Z,4.35
2023-05-03T04:53:30.818Z,4.03
2023-05-03T04:55:57.234Z,3.90
2023-05-03T04:58:23.741Z,4.00
2023-05-03T05:00:50.341Z,4.15
2023-05-03T05:03:16.956Z,4.22
2023-05-03T05:05:44.730Z,4.15
2023-05-03T05:08:11.288Z,4.60
2023-05-03T05:10:38.132Z,3.95
2023-05-03T05:13:04.629Z,3.63
2023-05-03T05:15:31.256Z,4.20
2023-05-03T05:17:57.899Z,4.47
2023-05-03T05:20:24.795Z,4.65
2023-05-03T05:22:52.491Z,4.40
2023-05-03T05:25:19.012Z,4.43
2023-05-03T05:27:46.340Z,4.80
2023-05-03T05:30:13.129Z,4.38
2023-05-03T05:32:39.679Z,4.72
2023-05-03T05:35:06.500Z,4.20
2023-05-03T05:37:32.971Z,4.40
2023-05-03T05:40:01.210Z,4.60
2023-05-03T05:42:27.984Z,4.10
2023-05-03T05:44:54.412Z,4.53
2023-05-03T05:47:21.059Z,4.45
2023-05-03T05:49:47.525Z,4.10
2023-05-03T05:52:14.002Z,4.35
2023-05-03T05:54:40.562Z,4.28
2023-05-03T05:57:08.382Z,4.03
2023-05-03T05:59:34.877Z,3.75
2023-05-03T06:02:01.488Z,4.35
2023-05-03T06:04:28.029Z,4.35
2023-05-03T06:06:54.562Z,3.78
2023-05-03T06:09:24.606Z,4.00
2023-05-03T06:11:51.761Z,3.97
2023-05-03T06:14:19.879Z,6.88
2023-05-03T06:16:46.692Z,6.47
2023-05-03T06:19:13.445Z,5.65
2023-05-03T06:21:39.969Z,5.72
2023-05-03T06:24:06.654Z,4.75
2023-05-03T06:26:33.117Z,4.93
2023-05-03T06:28:59.624Z,4.75
2023-05-03T06:31:27.526Z,4.57
2023-05-03T06:33:54.363Z,4.88
2023-05-03T06:36:20.919Z,5.03
2023-05-03T06:38:47.508Z,7.43
2023-05-03T06:41:13.981Z,6.55
2023-05-03T06:43:40.565Z,6.93
2023-05-03T06:46:07.078Z,7.20
2023-05-03T06:48:35.159Z,6.50
2023-05-03T06:51:02.018Z,7.22
2023-05-03T06:53:28.485Z,6.57
2023-05-03T06:55:55.212Z,6.68
2023-05-03T06:58:21.745Z,6.28
2023-05-03T07:00:51.973Z,6.93
2023-05-03T07:03:18.561Z,7.55
2023-05-03T07:05:46.390Z,6.38
2023-05-03T07:08:12.850Z,5.90
2023-05-03T07:10:39.284Z,6.05
2023-05-03T07:13:05.752Z,5.70
2023-05-03T07:15:32.303Z,5.97
2023-05-03T07:17:58.817Z,6.10
2023-05-03T07:20:25.465Z,5.88
2023-05-03T07:22:53.456Z,6.05
2023-05-03T07:25:19.965Z,5.88
2023-05-03T07:27:46.440Z,6.28
2023-05-03T07:30:13.519Z,5.47
2023-05-03T07:32:40.275Z,5.38
2023-05-03T07:35:07.399Z,5.70
2023-05-03T07:37:33.845Z,5.40
2023-05-03T07:40:01.939Z,5.72
2023-05-03T07:42:28.632Z,5.28
2023-05-03T07:44:55.059Z,4.50
2023-05-03T07:47:21.596Z,4.15
2023-05-03T07:49:48.194Z,4.18
2023-05-03T07:52:14.743Z,4.65
2023-05-03T07:54:41.283Z,3.80
2023-05-03T07:57:09.067Z,3.67
2023-05-03T07:59:35.514Z,3.75
2023-05-03T08:02:02.179Z,3.78
2023-05-03T08:04:28.936Z,3.45
2023-05-03T08:06:55.640Z,3.00
2023-05-03T08:09:22.287Z,3.35
2023-05-03T08:11:48.779Z,3.45
2023-05-03T08:14:16.479Z,3.30
2023-05-03T08:16:42.937Z,3.30
2023-05-03T08:19:09.607Z,2.97
2023-05-03T08:21:36.083Z,3.60
2023-05-03T08:24:02.565Z,4.18
2023-05-03T08:26:29.195Z,3.95
2023-05-03T08:28:55.731Z,3.67
2023-05-03T08:31:23.721Z,3.85
2023-05-03T08:33:50.557Z,3.90
2023-05-03T08:36:17.210Z,3.20
2023-05-03T08:38:43.756Z,3.05
2023-05-03T08:41:18.836Z,2.80
2023-05-03T08:43:45.593Z,2.97
2023-05-03T08:46:12.350Z,3.03
2023-05-03T08:48:40.368Z,2.80
2023-05-03T08:51:09.728Z,3.22
2023-05-03T08:53:36.355Z,2.90
2023-05-03T08:56:06.608Z,2.75
2023-05-03T08:58:34.712Z,2.80
2023-05-03T09:01:05.047Z,2.60
2023-05-03T09:03:31.796Z,2.70
2023-05-03T09:05:59.972Z,3.15
2023-05-03T09:08:26.920Z,3.03
2023-05-03T09:10:53.468Z,2.90
2023-05-03T09:13:20.110Z,2.92
2023-05-03T09:15:54.509Z,3.03
2023-05-03T09:18:21.706Z,2.80
2023-05-03T09:20:50.249Z,2.78
2023-05-03T09:23:19.791Z,3.10
2023-05-03T09:25:48.960Z,2.88
2023-05-03T09:28:17.185Z,3.00
2023-05-03T09:30:45.827Z,3.15
2023-05-03T09:33:13.456Z,3.22
2023-05-03T09:35:56.682Z,2.90
2023-05-03T09:38:31.633Z,3.00
2023-05-03T09:40:59.777Z,3.10
2023-05-03T09:43:27.583Z,3.40
2023-05-03T09:46:08.194Z,2.88
2023-05-03T09:48:36.198Z,2.85
2023-05-03T09:51:03.470Z,2.70
2023-05-03T09:53:32.173Z,2.65
2023-05-03T09:55:59.940Z,2.20
2023-05-03T09:58:27.370Z,2.50
2023-05-03T10:00:54.893Z,2.25
2023-05-03T10:03:28.214Z,2.47
2023-05-03T10:05:55.763Z,3.13
2023-05-03T10:08:27.724Z,2.50
2023-05-03T10:10:55.695Z,2.40
2023-05-03T10:13:22.662Z,2.20
2023-05-03T10:15:53.091Z,2.42
2023-05-03T10:18:21.471Z,2.15
2023-05-03T10:20:53.272Z,2.40
2023-05-03T10:23:19.691Z,2.45
2023-05-03T10:26:10.885Z,2.50
2023-05-03T10:28:39.240Z,2.53
2023-05-03T10:31:05.820Z,2.58
2023-05-03T10:33:33.342Z,2.42
2023-05-03T10:36:04.361Z,2.53
2023-05-03T10:38:30.953Z,2.78
2023-05-03T10:40:57.441Z,2.70
2023-05-03T10:43:43.051Z,2.78
2023-05-03T10:46:30.037Z,2.92
2023-05-03T10:49:16.389Z,2.42
2023-05-03T10:51:43.520Z,2.20
2023-05-03T10:54:09.948Z,2.65
2023-05-03T10:56:47.577Z,2.50
2023-05-03T10:59:15.310Z,2.33
2023-05-03T11:01:44.368Z,2.33
2023-05-03T11:04:14.889Z,2.50
2023-05-03T11:06:41.693Z,2.45
2023-05-03T11:09:10.129Z,2.30
2023-05-03T11:11:38.112Z,2.60
2023-05-03T11:14:05.251Z,2.95
2023-05-03T11:16:33.178Z,2.38
2023-05-03T11:19:00.206Z,2.28
2023-05-03T11:21:26.720Z,2.42
2023-05-03T11:23:53.330Z,2.00
2023-05-03T11:26:19.799Z,2.67
2023-05-03T11:28:46.217Z,2.00
2023-05-03T11:31:12.796Z,2.58
2023-05-03T11:33:41.348Z,2.40
2023-05-03T11:36:08.431Z,2.25
2023-05-03T11:38:41.886Z,1.80
2023-05-03T11:41:13.366Z,2.30
2023-05-03T11:43:41.807Z,2.10
2023-05-03T11:46:09.608Z,2.03
2023-05-03T11:48:37.790Z,2.22
2023-05-03T11:51:09.027Z,2.35
2023-05-03T11:53:37.067Z,2.50
2023-05-03T11:56:03.994Z,1.80
2023-05-03T11:58:30.451Z,1.90
2023-05-03T12:00:57.601Z,2.30
2023-05-03T12:03:30.899Z,1.90
2023-05-03T12:06:01.808Z,2.00
2023-05-03T12:08:35.328Z,1.80
2023-05-03T12:11:05.997Z,2.17
2023-05-03T12:13:35.985Z,1.88
2023-05-03T12:16:12.720Z,1.77
2023-05-03T12:18:49.797Z,1.90
2023-05-03T12:23:50.452Z,1.85
2023-05-03T12:26:19.358Z,2.03
2023-05-03T12:28:47.365Z,2.00
2023-05-03T12:31:17.435Z,1.80
2023-05-03T12:34:00.628Z,1.83
2023-05-03T12:36:31.632Z,1.92
2023-05-03T12:39:02.032Z,2.00
2023-05-03T12:44:00.778Z,2.05
2023-05-03T12:46:34.544Z,1.88
2023-05-03T12:49:06.734Z,2.10
2023-05-03T12:51:35.280Z,1.90
2023-05-03T12:54:06.137Z,1.83
2023-05-03T12:56:40.192Z,1.95
2023-05-03T13:04:41.329Z,1.75
2023-05-03T13:07:00.131Z,1.80
2023-05-03T13:09:46.158Z,1.90
2023-05-03T13:12:18.173Z,2.20
2023-05-03T13:14:46.096Z,2.03
2023-05-03T13:17:14.005Z,1.88
2023-05-03T13:19:42.997Z,1.83
2023-05-03T13:22:11.340Z,2.10
2023-05-03T13:24:40.320Z,1.80
2023-05-03T13:27:07.425Z,1.88
2023-05-03T13:29:33.860Z,2.10
2023-05-03T13:32:00.338Z,2.00
2023-05-03T13:34:26.905Z,1.83
2023-05-03T13:36:53.341Z,1.80
2023-05-03T13:39:20.155Z,2.22
2023-05-03T13:41:48.293Z,1.70
2023-05-03T13:44:15.044Z,2.10
2023-05-03T13:46:41.810Z,1.73
2023-05-03T13:49:08.425Z,2.00
2023-05-03T13:51:35.730Z,2.08
2023-05-03T13:54:04.099Z,2.00
2023-05-03T13:56:30.948Z,2.15
2023-05-03T13:58:59.002Z,1.98
2023-05-03T14:01:25.797Z,2.10
2023-05-03T14:03:52.549Z,1.98
2023-05-03T14:06:20.059Z,2.10
2023-05-03T14:08:46.771Z,2.20
2023-05-03T14:11:13.590Z,1.98
2023-05-03T14:13:54.711Z,2.20
2023-05-03T14:16:38.944Z,2.35
2023-05-03T14:19:07.996Z,2.35
2023-05-03T14:21:34.604Z,2.40
2023-05-03T14:24:01.285Z,2.00
2023-05-03T14:26:27.794Z,2.03
2023-05-03T14:28:54.246Z,1.95
2023-05-03T14:31:21.015Z,2.22
2023-05-03T14:33:48.840Z,2.33
2023-05-03T14:36:15.381Z,2.00
2023-05-03T14:38:41.843Z,1.83
2023-05-03T14:41:08.331Z,1.60
2023-05-03T14:43:35.013Z,1.35
2023-05-03T14:46:01.436Z,1.80
2023-05-03T14:48:27.928Z,1.50
2023-05-03T14:50:55.704Z,1.50
2023-05-03T14:53:22.297Z,1.50
2023-05-03T14:55:48.862Z,1.70
2023-05-03T14:58:15.882Z,1.60
2023-05-03T15:00:42.815Z,1.77
2023-05-03T15:03:09.938Z,2.17
2023-05-03T15:05:42.374Z,1.40
2023-05-03T15:08:10.233Z,1.50
2023-05-03T15:10:38.227Z,1.70
2023-05-03T15:13:04.840Z,1.70
2023-05-03T15:15:31.462Z,1.90
2023-05-03T15:17:57.944Z,1.52
2023-05-03T15:20:24.446Z,1.50
2023-05-03T15:22:50.885Z,1.83
2023-05-03T15:25:18.755Z,1.60
2023-05-03T15:27:45.186Z,1.63
2023-05-03T15:30:12.445Z,1.30
2023-05-03T15:32:39.071Z,1.60
2023-05-03T15:35:06.524Z,1.75
2023-05-03T15:37:34.742Z,1.35
2023-05-03T15:40:01.475Z,1.60
2023-05-03T15:42:29.401Z,1.40
2023-05-03T15:44:56.093Z,1.60
2023-05-03T15:47:22.704Z,1.35
2023-05-03T15:49:49.186Z,1.40
2023-05-03T15:52:15.810Z,1.60
2023-05-03T15:54:42.332Z,1.30
2023-05-03T15:57:08.908Z,1.42
2023-05-03T15:59:36.684Z,1.27
2023-05-03T16:02:03.174Z,1.67
2023-05-03T16:04:29.726Z,1.52
2023-05-03T16:06:56.306Z,1.50
2023-05-03T16:09:22.809Z,1.70
2023-05-03T16:11:49.209Z,1.60
2023-05-03T16:14:15.729Z,1.60
2023-05-03T16:16:43.669Z,1.40
2023-05-03T16:19:10.391Z,1.95
2023-05-03T16:21:36.949Z,1.42
2023-05-03T16:24:03.772Z,1.60
2023-05-03T16:26:30.284Z,1.55
2023-05-03T16:28:56.776Z,1.30
2023-05-03T16:31:23.553Z,1.50
2023-05-03T16:33:51.636Z,1.40
2023-05-03T16:36:18.185Z,1.45
2023-05-03T16:38:45.054Z,1.50
2023-05-03T16:41:11.545Z,1.50
2023-05-03T16:43:38.681Z,1.45
2023-05-03T16:46:05.414Z,1.45
2023-05-03T16:48:32.520Z,1.40
2023-05-03T16:51:00.480Z,1.42
2023-05-03T16:53:27.149Z,1.30
2023-05-03T16:55:54.265Z,1.45
2023-05-03T16:58:20.726Z,1.30
2023-05-03T17:00:47.276Z,1.33
2023-05-03T17:03:13.960Z,1.50
2023-05-03T17:05:40.471Z,1.30
2023-05-03T17:08:08.213Z,1.40
2023-05-03T17:10:36.109Z,1.40
2023-05-03T17:13:02.570Z,1.35
2023-05-03T17:15:29.107Z,1.50
2023-05-03T17:17:55.586Z,1.20
2023-05-03T17:20:22.033Z,1.20
2023-05-03T17:22:48.601Z,1.48
2023-05-03T17:25:16.559Z,1.40
2023-05-03T17:27:43.136Z,1.35
2023-05-03T17:30:10.600Z,1.35
2023-05-03T17:32:37.083Z,1.15
2023-05-03T17:35:03.901Z,1.38
2023-05-03T17:37:30.392Z,1.20
2023-05-03T17:39:56.885Z,1.48
2023-05-03T17:42:24.806Z,1.48
2023-05-03T17:44:51.529Z,1.33
2023-05-03T17:47:17.986Z,1.50
2023-05-03T17:49:44.524Z,1.35
2023-05-03T17:52:11.024Z,1.25
2023-05-03T17:54:37.649Z,1.30
2023-05-03T17:57:04.134Z,1.27
2023-05-03T17:59:32.528Z,1.30
2023-05-03T18:01:59.081Z,1.00
2023-05-03T18:04:25.688Z,1.30
2023-05-03T18:06:52.175Z,1.40
2023-05-03T18:09:18.695Z,1.50
2023-05-03T18:11:45.177Z,1.30
2023-05-03T18:14:11.922Z,1.40
2023-05-03T18:16:39.894Z,1.20
2023-05-03T18:19:06.505Z,1.55
2023-05-03T18:21:33.036Z,1.17
2023-05-03T18:23:59.595Z,1.35
2023-05-03T18:26:26.199Z,1.10
2023-05-03T18:28:53.735Z,1.50
2023-05-03T18:31:20.416Z,1.38
2023-05-03T18:33:48.226Z,1.20
2023-05-03T18:36:14.790Z,1.50
2023-05-03T18:38:41.483Z,1.50
2023-05-03T18:41:09.533Z,1.42
2023-05-03T18:43:38.951Z,1.35
2023-05-03T18:46:05.603Z,1.35
2023-05-03T18:48:32.071Z,1.27
2023-05-03T18:50:59.858Z,1.20
2023-05-03T18:53:26.364Z,1.40
2023-05-03T18:55:52.897Z,1.23
2023-05-03T18:58:19.459Z,1.45
2023-05-03T19:00:45.941Z,1.52
2023-05-03T19:03:12.502Z,1.20
2023-05-03T19:05:38.976Z,1.30
2023-05-03T19:08:07.004Z,1.33
2023-05-03T19:10:33.459Z,1.25
2023-05-03T19:12:59.981Z,1.40
2023-05-03T19:15:26.465Z,1.35
2023-05-03T19:17:53.293Z,1.38
2023-05-03T19:20:19.930Z,1.60
2023-05-03T19:22:46.419Z,1.48
2023-05-03T19:25:14.230Z,1.50
2023-05-03T19:27:40.819Z,1.42
2023-05-03T19:30:08.962Z,1.58
2023-05-03T19:32:35.645Z,1.38
2023-05-03T19:35:02.456Z,1.45
2023-05-03T19:37:29.351Z,1.42
2023-05-03T19:39:56.156Z,1.25
2023-05-03T19:42:23.978Z,1.33
2023-05-03T19:44:50.456Z,1.50
2023-05-03T19:47:17.090Z,1.17
2023-05-03T19:49:43.592Z,1.40
2023-05-03T19:52:10.041Z,1.30
2023-05-03T19:54:36.938Z,1.40
2023-05-03T19:57:03.820Z,1.40
2023-05-03T19:59:31.996Z,1.40
2023-05-03T20:01:58.989Z,1.52
2023-05-03T20:04:25.762Z,1.30
2023-05-03T20:06:52.254Z,1.73
2023-05-03T20:09:19.403Z,1.52
2023-05-03T20:11:45.941Z,1.50
2023-05-03T20:14:12.439Z,1.55
2023-05-03T20:16:40.395Z,1.50
2023-05-03T20:19:07.273Z,1.50
2023-05-03T20:21:33.892Z,1.55
2023-05-03T20:24:00.482Z,1.40
2023-05-03T20:26:27.177Z,1.50
2023-05-03T20:28:54.019Z,1.58
2023-05-03T20:31:20.616Z,1.48
2023-05-03T20:33:48.525Z,1.50
2023-05-03T20:36:14.971Z,1.50
2023-05-03T20:38:41.423Z,1.50
2023-05-03T20:41:08.558Z,1.50
2023-05-03T20:43:54.866Z,1.30
2023-05-03T20:46:21.421Z,1.50
2023-05-03T20:48:49.244Z,1.50
2023-05-03T20:51:15.692Z,1.70
2023-05-03T20:53:42.171Z,1.50
2023-05-03T20:56:08.657Z,1.55
2023-05-03T20:58:35.279Z,1.40
2023-05-03T21:01:01.953Z,1.35
2023-05-03T21:03:28.779Z,1.48
2023-05-03T21:05:57.083Z,1.45
2023-05-03T21:08:24.351Z,1.63
2023-05-03T21:10:50.950Z,1.40
2023-05-03T21:13:17.489Z,1.40
2023-05-03T21:15:44.062Z,1.40
2023-05-03T21:18:10.976Z,1.35
2023-05-03T21:20:37.791Z,1.50
2023-05-03T21:23:05.603Z,1.30
2023-05-03T21:25:32.172Z,1.40
2023-05-03T21:27:58.680Z,1.50
2023-05-03T21:30:25.223Z,1.50
2023-05-03T21:32:51.732Z,1.30
2023-05-03T21:35:19.014Z,1.50
2023-05-03T21:37:46.576Z,1.52
2023-05-03T21:40:15.002Z,1.65
2023-05-03T21:42:41.452Z,1.60
2023-05-03T21:45:08.750Z,1.52
2023-05-03T21:47:35.246Z,1.50
2023-05-03T21:50:02.871Z,1.35
2023-05-03T21:52:29.541Z,1.52
2023-05-03T21:54:55.961Z,1.80
2023-05-03T21:57:23.722Z,1.58
2023-05-03T21:59:50.167Z,1.50
2023-05-03T22:02:16.650Z,1.50
2023-05-03T22:04:43.112Z,1.55
2023-05-03T22:07:09.643Z,1.35
2023-05-03T22:09:36.224Z,1.60
2023-05-03T22:12:19.079Z,1.33
2023-05-03T22:14:50.311Z,1.50
2023-05-03T22:17:16.779Z,1.50
2023-05-03T22:19:43.285Z,1.52
2023-05-03T22:22:09.896Z,1.35
2023-05-03T22:24:36.312Z,1.40
2023-05-03T22:27:02.864Z,1.40
2023-05-03T22:29:29.309Z,1.58
2023-05-03T22:31:57.261Z,1.50
2023-05-03T22:34:23.775Z,1.58
2023-05-03T22:36:50.248Z,1.40
2023-05-03T22:39:16.861Z,1.45
2023-05-03T22:41:43.418Z,1.48
2023-05-03T22:44:09.891Z,1.60
2023-05-03T22:46:36.397Z,1.42
2023-05-03T22:49:04.180Z,1.48
2023-05-03T22:51:31.021Z,1.40
2023-05-03T22:53:57.494Z,1.52
2023-05-03T22:56:23.933Z,1.70
2023-05-03T22:58:50.397Z,1.60
2023-05-03T23:01:16.912Z,1.73
2023-05-03T23:03:43.534Z,1.40
2023-05-03T23:06:11.539Z,1.60
2023-05-03T23:08:38.089Z,1.40
2023-05-03T23:11:05.182Z,1.52
2023-05-03T23:13:31.730Z,1.42
2023-05-03T23:15:58.266Z,1.65
2023-05-03T23:18:24.736Z,1.52
2023-05-03T23:20:51.264Z,1.63
2023-05-03T23:23:19.255Z,1.60
2023-05-03T23:25:45.711Z,1.35
2023-05-03T23:28:12.676Z,1.55
2023-05-03T23:30:42.269Z,1.55
2023-05-03T23:33:09.251Z,1.45
2023-05-03T23:35:56.025Z,1.50
2023-05-03T23:38:23.903Z,1.40
2023-05-03T23:40:50.402Z,1.50
2023-05-03T23:43:17.007Z,1.70
2023-05-03T23:45:43.620Z,1.50
2023-05-03T23:48:29.982Z,1.60
2023-05-03T23:51:16.336Z,1.48
2023-05-03T23:53:44.113Z,1.52
2023-05-03T23:56:10.539Z,1.70
2023-05-03T23:58:37.053Z,1.60
